createdAt,value
2022-10-19T00:01:23.141Z,4.06
2022-10-19T00:03:24.433Z,4.05
2022-10-19T00:05:25.708Z,4.06
2022-10-19T00:09:28.968Z,4.06
2022-10-19T00:11:29.875Z,4.06
2022-10-19T00:13:30.766Z,4.06
2022-10-19T00:15:32.135Z,4.05
2022-10-19T00:17:33.453Z,4.05
2022-10-19T00:19:35.007Z,4.06
2022-10-19T00:21:36.120Z,4.05
2022-10-19T00:23:37.339Z,4.05
2022-10-19T00:25:38.507Z,4.05
2022-10-19T00:27:40.075Z,4.05
2022-10-19T00:29:41.940Z,4.05
2022-10-19T00:31:43.141Z,4.05
2022-10-19T00:33:44.869Z,4.05
2022-10-19T00:35:46.740Z,4.05
2022-10-19T00:37:47.710Z,4.05
2022-10-19T00:39:48.833Z,4.05
2022-10-19T00:41:49.993Z,4.05
2022-10-19T00:43:51.341Z,4.05
2022-10-19T00:45:52.411Z,4.05
2022-10-19T00:47:53.885Z,4.05
2022-10-19T00:51:57.369Z,4.05
2022-10-19T00:53:58.940Z,4.05
2022-10-19T00:56:00.377Z,4.05
2022-10-19T00:58:01.506Z,4.05
2022-10-19T01:00:02.898Z,4.05
2022-10-19T01:04:05.371Z,4.05
2022-10-19T01:08:07.438Z,4.05
2022-10-19T01:10:08.600Z,4.04
2022-10-19T01:12:10.349Z,4.04
2022-10-19T01:14:11.259Z,4.05
2022-10-19T01:16:12.731Z,4.04
2022-10-19T01:18:14.634Z,4.04
2022-10-19T01:20:15.512Z,4.04
2022-10-19T01:24:17.877Z,4.04
2022-10-19T01:26:19.154Z,4.04
2022-10-19T01:28:20.223Z,4.04
2022-10-19T01:30:21.616Z,4.04
2022-10-19T01:34:23.727Z,4.04
2022-10-19T01:36:25.579Z,4.04
2022-10-19T01:38:26.656Z,4.04
2022-10-19T01:40:28.220Z,4.04
2022-10-19T01:42:29.892Z,4.04
2022-10-19T01:44:30.864Z,4.04
2022-10-19T01:46:32.559Z,4.04
2022-10-19T01:50:34.739Z,4.04
2022-10-19T01:52:36.704Z,4.04
2022-10-19T01:56:39.013Z,4.04
2022-10-19T02:00:42.058Z,4.04
2022-10-19T02:02:43.778Z,4.04
2022-10-19T02:06:46.126Z,4.04
2022-10-19T02:08:47.334Z,4.04
2022-10-19T02:10:48.666Z,4.04
2022-10-19T02:12:50.258Z,4.04
2022-10-19T02:14:51.827Z,4.04
2022-10-19T02:16:53.022Z,4.04
2022-10-19T02:18:54.404Z,4.04
2022-10-19T02:22:57.284Z,4.04
2022-10-19T02:24:58.339Z,4.04
2022-10-19T02:29:01.356Z,4.04
2022-10-19T02:31:03.105Z,4.03
2022-10-19T02:33:04.132Z,4.04
2022-10-19T02:35:05.821Z,4.04
2022-10-19T02:37:07.074Z,4.03
2022-10-19T02:41:10.612Z,4.03
2022-10-19T02:43:12.411Z,4.03
2022-10-19T02:45:13.617Z,4.03
2022-10-19T02:49:16.943Z,4.03
2022-10-19T02:51:18.311Z,4.03
2022-10-19T02:53:19.348Z,4.03
2022-10-19T02:55:20.815Z,4.03
2022-10-19T02:57:21.805Z,4.03
2022-10-19T02:59:22.814Z,4.03
2022-10-19T03:01:23.847Z,4.03
2022-10-19T03:05:26.373Z,4.03
2022-10-19T03:07:27.510Z,4.03
2022-10-19T03:09:28.771Z,4.03
2022-10-19T03:11:30.325Z,4.03
2022-10-19T03:13:31.454Z,4.03
2022-10-19T03:15:33.032Z,4.03
2022-10-19T03:17:34.913Z,4.03
2022-10-19T03:21:37.042Z,4.03
2022-10-19T03:23:38.463Z,4.03
2022-10-19T03:25:39.904Z,4.03
2022-10-19T03:27:41.311Z,4.02
2022-10-19T03:29:42.500Z,4.03
2022-10-19T03:31:43.749Z,4.02
2022-10-19T03:33:45.162Z,4.02
2022-10-19T03:37:48.028Z,4.02
2022-10-19T03:39:49.639Z,4.02
2022-10-19T03:41:51.048Z,4.02
2022-10-19T03:43:52.706Z,4.02
2022-10-19T03:47:55.238Z,4.03
2022-10-19T03:49:56.568Z,4.02
2022-10-19T03:53:58.779Z,4.02
2022-10-19T03:56:00.197Z,4.02
2022-10-19T03:58:01.964Z,4.02
2022-10-19T04:02:05.004Z,4.02
2022-10-19T04:04:06.522Z,4.02
2022-10-19T04:06:08.019Z,4.02
2022-10-19T04:08:09.344Z,4.02
2022-10-19T04:10:11.004Z,4.02
2022-10-19T04:12:11.932Z,4.02
2022-10-19T04:14:15.841Z,4.02
2022-10-19T04:16:14.957Z,4.01
2022-10-19T04:20:17.323Z,4.02
2022-10-19T04:21:01.153Z,4.02
2022-10-19T04:23:03.032Z,4.02
2022-10-19T04:25:04.733Z,4.02
2022-10-19T04:27:06.097Z,4.02
2022-10-19T04:29:07.113Z,4.02
2022-10-19T04:31:08.722Z,4.01
2022-10-19T04:33:09.831Z,4.02
2022-10-19T04:35:11.489Z,4.01
2022-10-19T04:37:12.944Z,4.02
2022-10-19T04:41:15.836Z,4.02
2022-10-19T04:43:17.301Z,4.02
2022-10-19T04:47:19.937Z,4.01
2022-10-19T04:49:21.225Z,4.01
2022-10-19T04:51:22.654Z,4.01
2022-10-19T04:57:26.531Z,4.01
2022-10-19T04:59:27.830Z,4.01
2022-10-19T05:01:29.058Z,4.01
2022-10-19T05:03:30.254Z,4.01
2022-10-19T05:05:31.653Z,4.01
2022-10-19T05:07:32.791Z,4.01
2022-10-19T05:09:34.082Z,4.01
2022-10-19T05:13:36.561Z,4.01
2022-10-19T05:15:38.173Z,4.01
2022-10-19T05:17:39.286Z,4.01
2022-10-19T05:19:41.094Z,4.01
2022-10-19T05:23:43.853Z,4.01
2022-10-19T05:25:45.417Z,4.01
2022-10-19T05:27:46.424Z,4
2022-10-19T05:29:48.149Z,4
2022-10-19T05:31:49.289Z,4.01
2022-10-19T05:33:50.681Z,4.01
2022-10-19T05:35:51.741Z,4.01
2022-10-19T05:37:53.609Z,4.01
2022-10-19T05:39:54.778Z,4.01
2022-10-19T05:43:58.405Z,4.01
2022-10-19T05:46:00.098Z,4.01
2022-10-19T05:48:01.136Z,4.01
2022-10-19T05:50:02.335Z,4.01
2022-10-19T05:52:04.191Z,4.01
2022-10-19T05:56:07.803Z,4
2022-10-19T05:58:08.850Z,4
2022-10-19T06:00:10.496Z,4.01
2022-10-19T06:02:12.019Z,4
2022-10-19T06:06:14.400Z,4
2022-10-19T06:08:15.369Z,4
2022-10-19T06:12:20.390Z,4
2022-10-19T06:14:19.111Z,4
2022-10-19T06:16:20.518Z,4
2022-10-19T06:20:22.987Z,4
2022-10-19T06:24:25.343Z,4
2022-10-19T06:26:27.175Z,4
2022-10-19T06:28:28.142Z,4
2022-10-19T06:30:29.718Z,4
2022-10-19T06:32:31.369Z,4
2022-10-19T06:34:32.546Z,4
2022-10-19T06:38:35.049Z,4
2022-10-19T06:40:36.121Z,4
2022-10-19T06:44:39.348Z,4
2022-10-19T06:46:40.319Z,4
2022-10-19T06:48:41.887Z,4
2022-10-19T06:50:43.320Z,4
2022-10-19T06:52:44.237Z,4
2022-10-19T06:54:46.141Z,4
2022-10-19T06:56:47.663Z,4
2022-10-19T06:58:49.040Z,4
2022-10-19T07:00:50.176Z,4
2022-10-19T07:04:52.860Z,4
2022-10-19T07:06:54.110Z,3.99
2022-10-19T07:08:55.339Z,3.99
2022-10-19T07:10:57.175Z,4
2022-10-19T07:12:58.628Z,3.99
2022-10-19T07:15:00.254Z,4
2022-10-19T07:17:02.060Z,4
2022-10-19T07:21:05.009Z,4
2022-10-19T07:23:06.101Z,3.99
2022-10-19T07:25:07.450Z,3.99
2022-10-19T07:27:08.578Z,3.99
2022-10-19T07:29:09.741Z,4
2022-10-19T07:31:11.000Z,4
2022-10-19T07:33:12.692Z,3.99
2022-10-19T07:37:16.027Z,3.99
2022-10-19T07:39:16.963Z,3.99
2022-10-19T07:41:18.379Z,3.99
2022-10-19T07:45:20.734Z,4
2022-10-19T07:47:22.125Z,4
2022-10-19T07:49:23.115Z,4
2022-10-19T07:51:24.706Z,4
2022-10-19T07:53:26.372Z,4
2022-10-19T07:55:27.909Z,4
2022-10-19T07:57:29.509Z,4
2022-10-19T07:59:31.139Z,4
2022-10-19T08:05:35.499Z,4
2022-10-19T08:07:36.975Z,4
2022-10-19T08:09:52.496Z,4
2022-10-19T08:11:39.940Z,4
2022-10-19T08:13:41.802Z,4
2022-10-19T08:15:43.586Z,4
2022-10-19T08:19:46.552Z,4
2022-10-19T08:21:47.695Z,4
2022-10-19T08:23:49.365Z,4
2022-10-19T08:25:50.422Z,4
2022-10-19T08:29:53.190Z,4.01
2022-10-19T08:31:54.068Z,4.01
2022-10-19T08:33:55.018Z,4.01
2022-10-19T08:35:56.385Z,4
2022-10-19T08:37:58.683Z,4
2022-10-19T08:39:59.706Z,4
2022-10-19T08:42:01.217Z,4.01
2022-10-19T08:44:03.962Z,4
2022-10-19T08:46:03.806Z,4.01
2022-10-19T08:48:05.460Z,4.01
2022-10-19T08:50:06.662Z,4.01
2022-10-19T08:52:08.080Z,4.01
2022-10-19T08:54:09.594Z,4.01
2022-10-19T08:58:12.199Z,4.01
2022-10-19T09:00:13.916Z,4.01
2022-10-19T09:02:14.831Z,4.01
2022-10-19T09:04:15.924Z,4.01
2022-10-19T09:06:17.723Z,4.01
2022-10-19T09:08:18.921Z,4.01
2022-10-19T09:12:21.689Z,4.01
2022-10-19T09:14:23.391Z,4.01
2022-10-19T09:16:24.328Z,4.02
2022-10-19T09:18:25.970Z,4.01
2022-10-19T09:20:27.142Z,4.02
2022-10-19T09:22:28.907Z,4.01
2022-10-19T09:24:30.617Z,4.02
2022-10-19T09:28:36.449Z,4.02
2022-10-19T09:30:34.469Z,4.02
2022-10-19T09:34:37.178Z,4.02
2022-10-19T09:36:50.303Z,4.02
2022-10-19T09:38:40.478Z,4.02
2022-10-19T09:40:41.558Z,4.02
2022-10-19T09:44:44.047Z,4.02
2022-10-19T09:48:47.416Z,4.03
2022-10-19T09:50:48.418Z,4.03
2022-10-19T09:54:51.318Z,4.03
2022-10-19T09:56:52.373Z,4.03
2022-10-19T09:58:53.806Z,4.03
2022-10-19T10:00:55.593Z,4.03
2022-10-19T10:02:56.921Z,4.03
2022-10-19T10:04:58.125Z,4.04
2022-10-19T10:06:59.532Z,4.04
2022-10-19T10:11:02.264Z,4.03
2022-10-19T10:13:04.043Z,4.03
2022-10-19T10:15:05.780Z,4.04
2022-10-19T10:17:06.742Z,4.04
2022-10-19T10:19:08.151Z,4.04
2022-10-19T10:21:09.261Z,4.04
2022-10-19T10:23:10.787Z,4.04
2022-10-19T10:27:12.995Z,4.04
2022-10-19T10:29:14.254Z,4.04
2022-10-19T10:31:15.783Z,4.04
2022-10-19T10:33:26.838Z,4.04
2022-10-19T10:35:17.725Z,4.04
2022-10-19T10:37:19.171Z,4.04
2022-10-19T10:39:20.393Z,4.04
2022-10-19T10:43:23.823Z,4.04
2022-10-19T10:45:25.419Z,4.04
2022-10-19T10:47:27.191Z,4.04
2022-10-19T10:49:28.931Z,4.04
2022-10-19T10:53:31.119Z,4.05
2022-10-19T10:55:32.693Z,4.05
2022-10-19T10:57:33.966Z,4.05
2022-10-19T10:59:35.292Z,4.05
2022-10-19T11:01:36.286Z,4.05
2022-10-19T11:03:37.671Z,4.05
2022-10-19T11:05:39.058Z,4.06
2022-10-19T11:08:24.343Z,4.06
2022-10-19T11:10:26.102Z,4.06
2022-10-19T11:14:28.315Z,4.06
2022-10-19T11:16:29.366Z,4.06
2022-10-19T11:20:32.105Z,4.06
2022-10-19T11:22:33.530Z,4.06
2022-10-19T11:24:34.922Z,4.06
2022-10-19T11:26:36.397Z,4.06
2022-10-19T11:28:37.506Z,4.07
2022-10-19T11:32:40.860Z,4.07
2022-10-19T11:34:42.219Z,4.08
2022-10-19T11:36:43.425Z,4.07
2022-10-19T11:38:45.203Z,4.07
2022-10-19T11:41:06.017Z,4.07
2022-10-19T11:46:49.891Z,4.07
2022-10-19T11:48:54.085Z,4.07
2022-10-19T11:50:54.016Z,4.07
2022-10-19T11:52:54.540Z,4.07
2022-10-19T11:54:56.413Z,4.07
2022-10-19T11:57:03.467Z,4.07
2022-10-19T11:58:58.494Z,4.07
2022-10-19T12:03:03.643Z,4.07
2022-10-19T12:05:03.215Z,4.07
2022-10-19T12:07:04.341Z,4.07
2022-10-19T12:09:05.949Z,4.08
2022-10-19T12:11:06.932Z,4.08
2022-10-19T12:13:08.257Z,4.08
2022-10-19T12:15:09.598Z,4.07
2022-10-19T12:19:12.247Z,4.08
2022-10-19T12:21:13.181Z,4.07
2022-10-19T12:23:14.583Z,4.07
2022-10-19T12:25:16.090Z,4.08
2022-10-19T12:29:18.697Z,4.07
2022-10-19T12:31:20.029Z,4.07
2022-10-19T12:33:21.789Z,4.08
2022-10-19T12:35:23.100Z,4.08
2022-10-19T12:37:24.628Z,4.08
2022-10-19T12:39:25.718Z,4.08
2022-10-19T12:41:27.426Z,4.08
2022-10-19T12:45:29.895Z,4.08
2022-10-19T12:47:30.787Z,4.08
2022-10-19T12:49:32.361Z,4.08
2022-10-19T12:51:33.776Z,4.08
2022-10-19T12:53:34.672Z,4.08
2022-10-19T12:55:35.813Z,4.08
2022-10-19T12:57:37.543Z,4.08
2022-10-19T13:01:39.959Z,4.08
2022-10-19T13:03:41.121Z,4.08
2022-10-19T13:05:42.407Z,4.08
2022-10-19T13:07:43.614Z,4.08
2022-10-19T13:11:47.224Z,4.08
2022-10-19T13:13:48.803Z,4.08
2022-10-19T13:17:51.315Z,4.08
2022-10-19T13:19:52.807Z,4.07
2022-10-19T13:21:54.344Z,4.08
2022-10-19T13:23:55.574Z,4.08
2022-10-19T13:27:58.496Z,4.07
2022-10-19T13:29:59.663Z,4.07
2022-10-19T13:34:02.230Z,4.07
2022-10-19T13:36:03.651Z,4.07
2022-10-19T13:38:04.713Z,4.07
2022-10-19T13:40:06.305Z,4.07
2022-10-19T13:44:09.820Z,4.07
2022-10-19T13:46:11.136Z,4.07
2022-10-19T13:48:12.982Z,4.07
2022-10-19T13:50:14.037Z,4.07
2022-10-19T13:54:16.649Z,4.07
2022-10-19T13:56:17.620Z,4.06
2022-10-19T13:58:19.411Z,4.07
2022-10-19T14:00:20.557Z,4.06
2022-10-19T14:02:22.262Z,4.06
2022-10-19T14:04:23.162Z,4.07
2022-10-19T14:06:25.993Z,4.06
2022-10-19T14:10:32.592Z,4.07
2022-10-19T14:12:29.210Z,4.07
2022-10-19T14:14:30.919Z,4.07
2022-10-19T14:16:32.397Z,4.07
2022-10-19T14:18:34.350Z,4.07
2022-10-19T14:20:36.125Z,4.07
2022-10-19T14:22:37.858Z,4.07
2022-10-19T14:26:39.990Z,4.08
2022-10-19T14:28:41.730Z,4.08
2022-10-19T14:30:42.725Z,4.08
2022-10-19T14:32:43.801Z,4.08
2022-10-19T14:34:45.126Z,4.09
2022-10-19T14:36:46.908Z,4.08
2022-10-19T14:38:47.888Z,4.08
2022-10-19T14:42:50.466Z,4.08
2022-10-19T14:44:52.023Z,4.08
2022-10-19T14:46:53.334Z,4.08
2022-10-19T14:48:54.578Z,4.08
2022-10-19T14:52:57.428Z,4.08
2022-10-19T14:54:58.545Z,4.08
2022-10-19T14:59:00.975Z,4.08
2022-10-19T15:01:01.984Z,4.08
2022-10-19T15:03:03.697Z,4.08
2022-10-19T15:05:04.938Z,4.08
2022-10-19T15:09:11.978Z,4.08
2022-10-19T15:11:08.654Z,4.08
2022-10-19T15:13:09.813Z,4.07
2022-10-19T15:15:11.357Z,4.08
2022-10-19T15:17:12.665Z,4.08
2022-10-19T15:21:15.229Z,4.07
2022-10-19T15:25:17.372Z,4.07
2022-10-19T15:27:18.752Z,4.07
2022-10-19T15:29:20.315Z,4.07
2022-10-19T15:31:22.107Z,4.07
2022-10-19T15:35:25.250Z,4.07
2022-10-19T15:39:37.024Z,4.07
2022-10-19T15:41:29.636Z,4.07
2022-10-19T15:43:31.251Z,4.07
2022-10-19T15:45:32.959Z,4.07
2022-10-19T15:47:34.601Z,4.07
2022-10-19T15:51:37.137Z,4.07
2022-10-19T15:53:38.132Z,4.07
2022-10-19T15:57:40.697Z,4.07
2022-10-19T15:59:41.676Z,4.07
2022-10-19T16:01:43.238Z,4.07
2022-10-19T16:03:44.318Z,4.06
2022-10-19T16:07:46.973Z,4.06
2022-10-19T16:09:48.796Z,4.06
2022-10-19T16:11:50.311Z,4.06
2022-10-19T16:13:51.703Z,4.06
2022-10-19T16:15:56.718Z,4.06
2022-10-19T16:17:54.673Z,4.06
2022-10-19T16:19:55.963Z,4.06
2022-10-19T16:23:58.340Z,4.06
2022-10-19T16:26:00.047Z,4.06
2022-10-19T16:28:01.055Z,4.06
2022-10-19T16:30:02.979Z,4.06
2022-10-19T16:34:06.227Z,4.06
2022-10-19T16:36:07.181Z,4.06
2022-10-19T16:38:08.438Z,4.06
2022-10-19T16:40:10.168Z,4.06
2022-10-19T16:42:10.998Z,4.06
2022-10-19T16:44:12.479Z,4.06
2022-10-19T16:46:13.487Z,4.06
2022-10-19T16:50:15.814Z,4.06
2022-10-19T16:52:16.742Z,4.06
2022-10-19T16:54:18.638Z,4.06
2022-10-19T16:56:20.532Z,4.06
2022-10-19T16:58:21.906Z,4.05
2022-10-19T17:00:22.897Z,4.06
2022-10-19T17:02:24.532Z,4.05
2022-10-19T17:04:25.533Z,4.06
2022-10-19T17:06:26.808Z,4.05
2022-10-19T17:08:36.560Z,4.05
2022-10-19T17:10:30.482Z,4.05
2022-10-19T17:12:31.804Z,4.05
2022-10-19T17:16:34.512Z,4.05
2022-10-19T17:18:36.224Z,4.05
2022-10-19T17:22:38.886Z,4.05
2022-10-19T17:24:40.643Z,4.05
2022-10-19T17:26:41.810Z,4.05
2022-10-19T17:28:42.899Z,4.05
2022-10-19T17:32:46.098Z,4.05
2022-10-19T17:34:47.891Z,4.05
2022-10-19T17:36:49.038Z,4.05
2022-10-19T17:38:49.915Z,4.05
2022-10-19T17:40:51.841Z,4.05
2022-10-19T17:42:53.536Z,4.05
2022-10-19T17:44:55.306Z,4.05
2022-10-19T17:48:58.386Z,4.04
2022-10-19T17:50:59.391Z,4.05
2022-10-19T17:53:00.959Z,4.04
2022-10-19T17:55:45.925Z,4.04
2022-10-19T17:57:47.369Z,4.04
2022-10-19T17:59:52.711Z,4.04
2022-10-19T18:01:49.571Z,4.04
2022-10-19T18:03:51.158Z,4.04
2022-10-19T18:05:52.947Z,4.04
2022-10-19T18:09:56.363Z,4.04
2022-10-19T18:11:57.458Z,4.04
2022-10-19T18:16:00.171Z,4.04
2022-10-19T18:18:02.068Z,4.04
2022-10-19T18:20:03.973Z,4.04
2022-10-19T18:22:05.526Z,4.04
2022-10-19T18:26:08.115Z,4.04
2022-10-19T18:28:09.259Z,4.04
2022-10-19T18:30:10.799Z,4.04
2022-10-19T18:32:12.277Z,4.04
2022-10-19T18:36:15.142Z,4.04
2022-10-19T18:38:16.344Z,4.04
2022-10-19T18:40:17.967Z,4.04
2022-10-19T18:42:19.655Z,4.04
2022-10-19T18:44:23.588Z,4.04
2022-10-19T18:46:22.949Z,4.03
2022-10-19T18:48:24.488Z,4.03
2022-10-19T18:52:27.296Z,4.04
2022-10-19T18:54:29.015Z,4.04
2022-10-19T18:56:30.810Z,4.03
2022-10-19T18:58:32.077Z,4.03
2022-10-19T19:00:33.304Z,4.04
2022-10-19T19:02:42.513Z,4.04
2022-10-19T19:04:35.721Z,4.03
2022-10-19T19:08:38.435Z,4.03
2022-10-19T19:10:39.836Z,4.03
2022-10-19T19:12:41.623Z,4.03
2022-10-19T19:14:43.403Z,4.03
2022-10-19T19:16:45.181Z,4.03
2022-10-19T19:18:46.981Z,4.03
2022-10-19T19:20:48.105Z,4.03
2022-10-19T19:24:51.303Z,4.03
2022-10-19T19:26:52.497Z,4.03
2022-10-19T19:28:53.819Z,4.03
2022-10-19T19:30:55.513Z,4.03
2022-10-19T19:34:58.221Z,4.03
2022-10-19T19:37:00.107Z,4.03
2022-10-19T19:41:03.132Z,4.03
2022-10-19T19:43:04.626Z,4.02
2022-10-19T19:45:05.862Z,4.03
2022-10-19T19:47:07.496Z,4.03
2022-10-19T19:51:10.710Z,4.03
2022-10-19T19:53:12.446Z,4.02
2022-10-19T19:55:13.446Z,4.03
2022-10-19T19:57:15.291Z,4.02
2022-10-19T19:59:16.726Z,4.02
2022-10-19T20:01:18.087Z,4.02
2022-10-19T20:03:19.414Z,4.02
2022-10-19T20:07:21.833Z,4.02
2022-10-19T20:09:23.109Z,4.02
2022-10-19T20:13:25.638Z,4.02
2022-10-19T20:15:27.293Z,4.02
2022-10-19T20:17:28.714Z,4.02
2022-10-19T20:19:30.612Z,4.02
2022-10-19T20:23:32.850Z,4.02
2022-10-19T20:25:34.532Z,4.02
2022-10-19T20:27:36.606Z,4.02
2022-10-19T20:29:37.719Z,4.02
2022-10-19T20:31:39.737Z,4.02
2022-10-19T20:33:40.488Z,4.02
2022-10-19T20:35:41.755Z,4.02
2022-10-19T20:39:44.432Z,4.02
2022-10-19T20:41:46.023Z,4.02
2022-10-19T20:45:49.157Z,4.02
2022-10-19T20:49:52.203Z,4.02
2022-10-19T20:51:53.275Z,4.02
2022-10-19T20:53:54.347Z,4.02
2022-10-19T20:55:55.480Z,4.02
2022-10-19T20:57:56.445Z,4.01
2022-10-19T20:59:57.616Z,4.02
2022-10-19T21:01:59.077Z,4.01
2022-10-19T21:06:02.427Z,4.01
2022-10-19T21:08:03.550Z,4.01
2022-10-19T21:12:05.971Z,4.01
2022-10-19T21:14:06.918Z,4.01
2022-10-19T21:16:08.237Z,4.01
2022-10-19T21:18:09.792Z,4.01
2022-10-19T21:22:12.469Z,4.01
2022-10-19T21:24:14.208Z,4.01
2022-10-19T21:26:15.916Z,4.01
2022-10-19T21:28:17.186Z,4.01
2022-10-19T21:30:18.332Z,4.01
2022-10-19T21:32:19.485Z,4.01
2022-10-19T21:34:21.230Z,4.01
2022-10-19T21:38:23.353Z,4.01
2022-10-19T21:40:25.208Z,4.01
2022-10-19T21:42:26.418Z,4.01
2022-10-19T21:44:27.564Z,4.01
2022-10-19T21:48:30.916Z,4
2022-10-19T21:50:32.862Z,4
2022-10-19T21:52:34.733Z,4
2022-10-19T21:54:36.239Z,4
2022-10-19T21:56:37.797Z,4
2022-10-19T21:58:39.667Z,4.01
2022-10-19T22:00:41.455Z,4
2022-10-19T22:04:43.957Z,4
2022-10-19T22:06:44.914Z,4
2022-10-19T22:08:46.373Z,4
2022-10-19T22:10:48.084Z,4
2022-10-19T22:12:49.104Z,4
2022-10-19T22:14:50.241Z,4
2022-10-19T22:16:51.743Z,4
2022-10-19T22:20:54.428Z,4
2022-10-19T22:22:55.859Z,4
2022-10-19T22:24:57.769Z,4
2022-10-19T22:26:59.220Z,4
2022-10-19T22:31:02.745Z,4
2022-10-19T22:33:03.755Z,4
2022-10-19T22:37:06.397Z,4
2022-10-19T22:39:08.051Z,4
2022-10-19T22:41:09.215Z,4
2022-10-19T22:43:11.029Z,4
2022-10-19T22:47:13.856Z,4
2022-10-19T22:49:15.637Z,4
2022-10-19T22:51:17.412Z,4
2022-10-19T22:53:18.533Z,4
2022-10-19T22:55:19.523Z,4
2022-10-19T22:57:20.755Z,4
2022-10-19T22:59:22.125Z,3.99
2022-10-19T23:03:24.287Z,4
2022-10-19T23:05:25.443Z,4
2022-10-19T23:07:26.956Z,3.99
2022-10-19T23:09:28.474Z,4
2022-10-19T23:13:31.536Z,4
2022-10-19T23:15:33.246Z,3.99
2022-10-19T23:17:34.724Z,3.99
2022-10-19T23:19:35.995Z,3.99
2022-10-19T23:21:37.193Z,3.99
2022-10-19T23:23:38.540Z,3.99
2022-10-19T23:25:39.615Z,3.99
2022-10-19T23:29:42.020Z,3.99
2022-10-19T23:31:43.134Z,3.99
2022-10-19T23:35:46.158Z,3.99
2022-10-19T23:37:48.068Z,3.99
2022-10-19T23:39:49.126Z,3.99
2022-10-19T23:41:51.025Z,3.99
2022-10-19T23:45:53.867Z,3.99
2022-10-19T23:47:54.950Z,3.99
2022-10-19T23:49:56.571Z,3.99
2022-10-19T23:51:58.133Z,3.99
2022-10-19T23:56:01.033Z,3.99
2022-10-19T23:58:02.912Z,3.99
